Updated20/07/2018 11:25 
 

GeoURL
free counters
Scottish Weather Network UK Weather Network Cumulus Top Weather Sites

Peebles Weather - Nearby METAR Reports

Raw Data, Raw Data Expanded

Ignore low humidity and Dew Point values. Something wrong with the sensor.
Daytime temperatures are in direct sunlight so may be higher than official air temperature values.
As with any other website, we log your IP address and browser type in the server logs for diagnostic reasons. Cookies are used to record visit time. No personal information is stored or processed.

All times are in BST (UTC+1) unless specified.

2018/07/20 09:50 EGPH 200950Z 24007KT 200V270 9999 SCT017 15/13 Q1012
15.3°C 0.6 mm 2.1 mm 2.1 mm 0.1 mph 1.6 mph 1008.3 hPa 56% X-Ray Solar Flare Level
Planetary K-Index
Planetary K-Index History
Station Warn Rain Snow Flood Wind Ltng Heat Cold Glob Moon Temp Rain 1h Rain Fri Rain 24h Wind 10m Gust Pressure Hum Proton Levels

0.19 m Waxing Gibbous Cool F0-ESE F:71 A:4 Kp:0 SSN:0

METAR Reports

 

EGPH - Edinburgh Airpor, United Kingdom
Distance from station: NNW 22mi, 36km
Updated: 20/07/2018 10:50
Partly cloudy
Partly cloudy
 Wind from WSW
Wind: WSW 8 mph , 13 km/h
Temperature: 15°C
Dew Point: 13°C
Humidity: 88%
Barometer: 1012 hPa
Clouds: Partly cloudy
Visibility: 6 miles , 10 km
Cloud details: Partly cloudy 518 m
2018/07/20 09:50 EGPH 200950Z 24007KT 200V270 9999 SCT017 15/13 Q1012
EGOM - Spadeadam, United Kingdom
Distance from station: SSE 49mi, 79km
Updated: 20/07/2018 10:50
Light drizzle, Mostly cloudy
Light drizzle, Mostly cloudy
 Wind from WSW
Wind: WSW 15 mph , 24 km/h
Temperature: 13°C
Dew Point: 13°C
Humidity: 100%
Barometer: 1013 hPa
Summary: Light Drizzle
Clouds: Mostly cloudy
Visibility: 3 miles , 5 km
Cloud details: Mostly cloudy 61 m
Mostly cloudy 518 m
2018/07/20 09:50 EGOM 200950Z AUTO 24013KT 5000 -DZ BKN002/// BKN017/// 13/13 Q1013
 
EGNC - Carlisle, United Kingdom
Distance from station: SSE 51mi, 82km
Updated: 04/06/2018 13:50
NOT Current
Mostly cloudy
Mostly cloudy
 Wind from E
Wind: E 9 mph , 15 km/h
Temperature: 16°C
Dew Point: 14°C
Humidity: 88%
Barometer: 1019 hPa
Clouds: Mostly cloudy
Visibility: 6 miles , 10 km
Cloud details: Few Clouds 366 m
Mostly cloudy 610 m
2018/06/04 12:50 EGNC 041250Z 08008KT 9999 FEW012 BKN020 16/14 Q1019
EGPF - Glasgow Airport, United Kingdom
Distance from station: WNW 51mi, 82km
Updated: 20/07/2018 11:20
Overcast
Overcast
 Wind from SW
Wind: SW 12 mph , 19 km/h
Temperature: 16°C
Dew Point: 14°C
Humidity: 88%
Barometer: 1012 hPa
Clouds: Overcast
Visibility: 4 miles , 6 km
Cloud details: Mostly cloudy 244 m
Overcast 366 m
2018/07/20 10:20 EGPF 201020Z AUTO 22010KT 6000 BKN008 OVC012 16/14 Q1012
 
EGQL - Leuchars Raf, United Kingdom
Distance from station: NNE 53mi, 85km
Updated: 20/07/2018 10:50
Light rain, Mostly cloudy
Light rain, Mostly cloudy
 Wind from WSW
Wind: WSW 8 mph , 13 km/h
Temperature: 15°C
Dew Point: 14°C
Humidity: 94%
Barometer: 1011 hPa
Summary: Light rain
Clouds: Mostly cloudy
Visibility: 6 miles , 10 km
Cloud details: Mostly cloudy 274 m
Mostly cloudy 488 m
2018/07/20 09:50 EGQL 200950Z 24007KT 9999 -RA BKN009 BKN016 15/14 Q1011 GRN
EGPK - Prestwick(Civ/Na, United Kingdom
Distance from station: W 55mi, 89km
Updated: 20/07/2018 11:20
Light drizzle, Mostly cloudy
Light drizzle, Mostly cloudy
 Wind from SSW
Wind: SSW 8 mph , 13 km/h
Temperature: 16°C
Dew Point: 14°C
Humidity: 88%
Barometer: 1012 hPa
Summary: Light Drizzle
Clouds: Mostly cloudy
Visibility: 6 miles , 10 km
Cloud details: Partly cloudy 305 m
Mostly cloudy 762 m
2018/07/20 10:20 EGPK 201020Z 21007KT 180V260 9999 -DZ SCT010 BKN025 16/14 Q1012
 
EGPN - Dundee/Riverside, United Kingdom
Distance from station: N 56mi, 90km
Updated: 20/07/2018 11:20
Light rain, Mostly cloudy
Light rain, Mostly cloudy
 Wind from WSW
Wind: WSW 12 mph , 19 km/h
Temperature: 15°C
Dew Point: 14°C
Humidity: 94%
Barometer: 1012 hPa
Summary: Light rain
Clouds: Mostly cloudy
Visibility: 2 miles , 4 km
Cloud details: Partly cloudy 183 m
Mostly cloudy 427 m
2018/07/20 10:20 EGPN 201020Z 25010KT 4000 -RA SCT006 BKN014 15/14 Q1012 RERA
EGNT - Newcastle, United Kingdom
Distance from station: SE 72mi, 116km
Updated: 20/07/2018 11:20
Partly cloudy
Partly cloudy
 Wind from SW
Wind: SW 8 mph , 13 km/h
Temperature: 19°C
Dew Point: 10°C
Humidity: 56%
Barometer: 1013 hPa
Clouds: Partly cloudy
Visibility: 6 miles , 10 km
Cloud details: Partly cloudy 1067 m
2018/07/20 10:20 EGNT 201020Z 22007KT 180V270 9999 SCT035 19/10 Q1013
 
EGNV - Tees-Side, United Kingdom
Distance from station: SE 104mi, 168km
Updated: 20/07/2018 11:20
Few Clouds
Few Clouds
 Wind from SW
Wind: SW 14 mph , 22 km/h
Temperature: 21°C
Dew Point: 9°C
Humidity: 46%
Barometer: 1013 hPa
Clouds: Few Clouds
Visibility: 6 miles , 10 km
Cloud details: Few Clouds 1372 m
2018/07/20 10:20 EGNV 201020Z 22012KT 200V260 9999 FEW045 21/09 Q1013
EGPD - Aberdeen/Dyce, United Kingdom
Distance from station: NNE 114mi, 183km
Updated: 20/07/2018 11:20
Light rain, Mostly cloudy
Light rain, Mostly cloudy
 Wind from SW
Wind: SW 6 mph , 9 km/h
Temperature: 15°C
Dew Point: 13°C
Humidity: 88%
Barometer: 1011 hPa
Summary: Light rain
Clouds: Mostly cloudy
Visibility: 6 miles , 10 km
Cloud details: Partly cloudy 305 m
Mostly cloudy 914 m
2018/07/20 10:20 EGPD 201020Z 23005KT 150V260 9999 -RA SCT010 BKN030 15/13 Q1011 TEMPO RA BKN010
 
EGNS - Isle Of Man/Rona, United Kingdom
Distance from station: SSW 122mi, 197km
Updated: 20/07/2018 11:20
Light rain, Drizzle, Overcast
Light rain, Drizzle, Overcast
 Wind from SSW
Wind: SSW 13 mph , 20 km/h
Temperature: 13°C
Dew Point: 13°C
Humidity: 100%
Barometer: 1013 hPa
Summary: Light rain, Drizzle
Clouds: Overcast
Visibility: 2 miles , 3 km
Cloud details: Overcast 61 m
2018/07/20 10:20 EGNS 201020Z 20011KT 170V230 3000 -RADZ OVC002 13/13 Q1013 NOSIG
EGAC - Belfast Harbour, United Kingdom
Distance from station: WSW 128mi, 206km
Updated: 20/07/2018 11:20
Overcast
Overcast
 Wind from SW
Wind: SW 9 mph , 15 km/h
Temperature: 17°C
Dew Point: 15°C
Humidity: 88%
Barometer: 1012 hPa
Clouds: Overcast
Visibility: 6 miles , 10 km
Cloud details: Mostly cloudy 274 m
Overcast 610 m
2018/07/20 10:20 EGAC 201020Z AUTO 22008KT 9999 BKN009/// OVC020/// 17/15 Q1012
 
EGPE - Inverness/Dalcro, United Kingdom
Distance from station: NNW 134mi, 215km
Updated: 20/07/2018 11:20
Partly cloudy
Partly cloudy
 Wind from WSW
Wind: WSW 7 mph , 11 km/h
Temperature: 16°C
Dew Point: 15°C
Humidity: 94%
Barometer: 1011 hPa
Clouds: Partly cloudy
Visibility: 6 miles , 10 km
Cloud details: Few Clouds 152 m
Partly cloudy 549 m
2018/07/20 10:20 EGPE 201020Z 24006KT 210V290 9999 FEW005 SCT018 16/15 Q1011
XHTML 1.1 | CSS